KPAM/PAM METAR and TAF weather

Enter ICAO airport designator
Station Type Date Time Source
KPAM METAR 2020/09/21 05:56 UTC NOAA

KPAM 210556Z AUTO 06011G17KT 10SM OVC095 21/16 A3010 RMK AO2 SLP196 T02080164 10209 20199 402150184 58009 $


Station Type Date Time Source
KPAM Decoded METAR 2020/09/21 05:56 UTC NOAA

Tyndall Air Force Base, FL, United States (KPAM) 30-04N 085-35W 13M
Sep 21, 2020 - 01:56 AM EDT / 2020.09.21 0556 UTC
Wind: from the ENE (060 degrees) at 13 MPH (11 KT) gusting to 20 MPH (17 KT):0
Visibility: 10 mile(s):0
Sky conditions: overcast
Temperature: 69.4 F (20.8 C)
Dew Point: 61.5 F (16.4 C)
Relative Humidity: 75%
Pressure (altimeter): 30.1 in. Hg (1019 hPa)
Pressure tendency: 0.03 inches (0.9 hPa) lower than three hours ago
ob: KPAM 210556Z AUTO 06011G17KT 10SM OVC095 21/16 A3010 RMK AO2 SLP196 T02080164 10209 20199 402150184 58009
cycle: 6

Station Type Date Time Source
KPAM TAF 2020/09/18 21:57 UTC NOAA

TAF
AMD KPAM 182150Z 1821/2001 30009KT 9999 FEW015 SCT150 QNH2984INS
BECMG 1821/1822 32009KT 9999 SCT035 QNH2990INS WND 36009KT AFT 1901
BECMG 1906/1907 06012G18KT 9999 SCT030 QNH2990INS
BECMG 1920/1921 05015G25KT 9999 BKN020 QNH2996INS TX32/1920Z TN23/1911Z LAST NO
AMDS AFT 1822 NEXT 2111

Example: see airport list